Etusivu
METAR-TAF:

METAR-TAF

Lentoasemat :

Kassel, Saksa

Leveyspiiri: 51-24N, Pituuspiiri: 009-23E, korkeus merenpinnasta: 277 m

Tämänhetkinen sää

Tämä raportti tehtiin 30 minuuttia sitten, kello 17.50 UTC
Tuuli 2 kn lounaasta
Lämpötila 21°C
Kosteus 56%
Ilmanpaine 1020 hPa
Näkyvyys 10 km tai enemmän
Muutamia pilviä 4600 ft:n korkeudessa
Pilvistä 5100 ft:n korkeudessa

METAR: EDVK 151750Z 23002KT 9999 FEW046 OVC051 21/12 Q1020

Aika: 20:20 (18:20 UTC)

Sääennuste

Tämä raportti tehtiin 1 tunti ja 20 minuuttia sitten, kello 17.00 UTC
Ennuste voimassa 15. päivästä klo 18 UTC - 16. päivään klo 03 UTC
Tuuli 3 kn eri suunnista
Näkyvyys 10 km tai enemmän
Hajanaisia pilviä 4500 ft:n korkeudessa

TAF: EDVK 151700Z 1518/1603 VRB03KT 9999 SCT045

Säähavainnot ja -ennusteet yli 4000 lentoasemalta (METAR- ja TAF-raportit).

Käytössä olevat sääasemat on merkitty karttaan keltaisilla ja punaisilla pisteillä.

Aseta hiiri pisteen päälle nähdäksesi sääaseman nimen.

Klikkaa sitten nähdäksesi säähavainnot ja -ennusteet.

Kartan vaihtaminen: klikkaa mustalla rastilla varustettuja vihreitä pisteitä, niin voit zoomata sisään; viivalla varustettua vihreää pistettä, niin voit zoomata ulos tai vihreitä nuolia, niin pääset viereisille kartoille.


METAR-TAF: